OISA  Abadeh Airport

Add Bookmark

Abadeh, Iran

Status
Operational
Latitude Longitude
31° 10' 0" N 52° 40' 0" E
31.166668 52.666668
Local (DST + 5) UTC (GMT + 4)
Sep 18, 2014 12:09 Sep 18, 2014 07:39
Sunrise-Sunset Local UTC
Begin Civil Twilight 06:19 01:49
Sunrise 06:44 02:14
Sunset 07:02 14:32
End Civil Twilight 07:26 14:56

Current Weather

METAR Observed VFR
OISA 180450Z 31008KT CAVOK 21/00 Q1023 Thu, Sep 18, 2014 @ 04:50 UTC
(2 Hours, 49 Minutes ago)
Visual Flight Rules
Wind Visibility Clouds Conditions
310° at 8 knots (15 kph) 10 km or more
  • Clear skies
  • No significant weather
Temperatures Readings Precipitation
Current Temp 21°C (70°F)
Dewpoint 0°C (32°F)
Humidity 25%
Altimeter 30.21"Hg
Sea Level Pressure 1023mb
Field Elevation 6574.8'
None Recorded

Additional weather within a 185.2km radius of OISA

Map ICAO Location
OISY 118.7km W (244°)
OIYY 173.2km E (061°)
OISS 180.9km S (182°)

24 Hour Weather History

Loading
-

24 Hour Weather Graphs

Loading
-

CheckWX.com is intended as a tool to help pilots better visualize weather data. It is not intended as a substitute for an official weather briefing obtained from a Flight Service Station. CheckWX.com does not meet the FAA requirements for an official pre-flight weather briefing. Therefore, it's important that pilots still call and obtain an official FSS pre-flight weather briefing.